sensor_id;sensor_type;location;lat;lon;timestamp;pressure;altitude;pressure_sealevel;temperature;humidity
34237;BME280;20501;45.956;13.632;2023-02-07T00:01:54;102678.59;;;7.86;32.15
34237;BME280;20501;45.956;13.632;2023-02-07T00:04:19;102687.28;;;7.52;38.70
34237;BME280;20501;45.956;13.632;2023-02-07T00:06:45;102693.28;;;8.92;36.44
34237;BME280;20501;45.956;13.632;2023-02-07T00:09:11;102687.66;;;9.32;35.73
34237;BME280;20501;45.956;13.632;2023-02-07T00:11:37;102694.31;;;8.90;36.09
34237;BME280;20501;45.956;13.632;2023-02-07T00:14:06;102686.88;;;9.30;35.36
34237;BME280;20501;45.956;13.632;2023-02-07T00:16:31;102686.31;;;8.13;34.25
34237;BME280;20501;45.956;13.632;2023-02-07T00:18:58;102678.34;;;4.44;38.83
34237;BME280;20501;45.956;13.632;2023-02-07T00:21:24;102682.22;;;8.24;38.08
34237;BME280;20501;45.956;13.632;2023-02-07T00:23:51;102684.47;;;7.55;38.73
34237;BME280;20501;45.956;13.632;2023-02-07T00:26:18;102684.00;;;8.98;35.92
34237;BME280;20501;45.956;13.632;2023-02-07T00:28:45;102677.13;;;9.27;35.66
34237;BME280;20501;45.956;13.632;2023-02-07T00:31:33;102689.53;;;8.77;32.83
34237;BME280;20501;45.956;13.632;2023-02-07T00:34:01;102693.28;;;8.56;36.85
34237;BME280;20501;45.956;13.632;2023-02-07T00:36:29;102699.66;;;9.09;36.54
34237;BME280;20501;45.956;13.632;2023-02-07T00:38:59;102700.75;;;9.05;34.80
34237;BME280;20501;45.956;13.632;2023-02-07T00:41:26;102695.28;;;9.24;36.01
34237;BME280;20501;45.956;13.632;2023-02-07T00:43:53;102697.97;;;9.41;36.30
34237;BME280;20501;45.956;13.632;2023-02-07T00:46:18;102703.50;;;7.09;39.84
34237;BME280;20501;45.956;13.632;2023-02-07T00:48:44;102698.16;;;8.66;36.97
34237;BME280;20501;45.956;13.632;2023-02-07T00:51:11;102695.69;;;8.62;37.49
34237;BME280;20501;45.956;13.632;2023-02-07T00:53:38;102689.09;;;9.22;35.98
34237;BME280;20501;45.956;13.632;2023-02-07T00:56:04;102686.25;;;7.35;39.73
34237;BME280;20501;45.956;13.632;2023-02-07T00:58:29;102696.28;;;8.69;37.07
34237;BME280;20501;45.956;13.632;2023-02-07T01:00:55;102702.75;;;8.64;37.47
34237;BME280;20501;45.956;13.632;2023-02-07T01:03:21;102700.03;;;9.19;36.48
34237;BME280;20501;45.956;13.632;2023-02-07T01:05:47;102695.81;;;8.78;37.12
34237;BME280;20501;45.956;13.632;2023-02-07T01:08:12;102690.50;;;9.29;36.32
34237;BME280;20501;45.956;13.632;2023-02-07T01:10:39;102690.75;;;9.42;35.96
34237;BME280;20501;45.956;13.632;2023-02-07T01:13:05;102690.66;;;9.08;36.24
34237;BME280;20501;45.956;13.632;2023-02-07T01:15:30;102698.78;;;7.76;38.32
34237;BME280;20501;45.956;13.632;2023-02-07T01:17:56;102693.22;;;9.11;35.88
34237;BME280;20501;45.956;13.632;2023-02-07T01:20:21;102686.81;;;8.60;37.05
34237;BME280;20501;45.956;13.632;2023-02-07T01:22:47;102682.19;;;7.46;39.71
34237;BME280;20501;45.956;13.632;2023-02-07T01:25:12;102686.31;;;8.88;37.18
34237;BME280;20501;45.956;13.632;2023-02-07T01:27:38;102688.06;;;9.07;36.52
34237;BME280;20501;45.956;13.632;2023-02-07T01:30:04;102694.16;;;6.07;42.22
34237;BME280;20501;45.956;13.632;2023-02-07T01:32:31;102692.13;;;8.61;37.83
34237;BME280;20501;45.956;13.632;2023-02-07T01:34:56;102693.94;;;9.15;36.26
34237;BME280;20501;45.956;13.632;2023-02-07T01:37:22;102685.50;;;8.86;36.15
34237;BME280;20501;45.956;13.632;2023-02-07T01:39:47;102684.66;;;9.03;36.60
34237;BME280;20501;45.956;13.632;2023-02-07T01:42:13;102684.09;;;8.96;36.31
34237;BME280;20501;45.956;13.632;2023-02-07T01:47:05;102667.94;;;5.89;36.12
34237;BME280;20501;45.956;13.632;2023-02-07T01:49:33;102671.19;;;6.45;42.35
34237;BME280;20501;45.956;13.632;2023-02-07T01:52:05;102675.59;;;8.50;38.34
34237;BME280;20501;45.956;13.632;2023-02-07T01:54:35;102672.53;;;9.12;36.46
34237;BME280;20501;45.956;13.632;2023-02-07T01:57:06;102673.38;;;6.80;37.94
34237;BME280;20501;45.956;13.632;2023-02-07T01:59:34;102665.09;;;8.44;37.87
34237;BME280;20501;45.956;13.632;2023-02-07T02:02:04;102670.16;;;6.26;37.03
34237;BME280;20501;45.956;13.632;2023-02-07T02:04:30;102654.72;;;8.17;35.31
34237;BME280;20501;45.956;13.632;2023-02-07T02:06:56;102663.22;;;5.72;43.65
34237;BME280;20501;45.956;13.632;2023-02-07T02:09:22;102662.94;;;6.72;37.96
34237;BME280;20501;45.956;13.632;2023-02-07T02:12:10;102654.00;;;8.13;37.60
34237;BME280;20501;45.956;13.632;2023-02-07T02:29:08;102666.66;;;9.21;36.67
34237;BME280;20501;45.956;13.632;2023-02-07T02:34:36;102658.84;;;6.84;41.35
34237;BME280;20501;45.956;13.632;2023-02-07T02:42:43;102654.38;;;4.68;38.08
34237;BME280;20501;45.956;13.632;2023-02-07T02:45:17;102653.09;;;7.35;40.76
34237;BME280;20501;45.956;13.632;2023-02-07T02:47:47;102654.69;;;8.36;38.51
34237;BME280;20501;45.956;13.632;2023-02-07T02:50:18;102651.44;;;8.48;37.22
34237;BME280;20501;45.956;13.632;2023-02-07T02:52:45;102643.72;;;9.12;36.84
34237;BME280;20501;45.956;13.632;2023-02-07T02:55:11;102651.50;;;9.19;36.25
34237;BME280;20501;45.956;13.632;2023-02-07T03:00:40;102652.59;;;8.97;37.04
34237;BME280;20501;45.956;13.632;2023-02-07T03:03:29;102653.13;;;6.27;42.47
34237;BME280;20501;45.956;13.632;2023-02-07T03:06:34;102653.41;;;5.95;43.15
34237;BME280;20501;45.956;13.632;2023-02-07T03:12:56;102657.75;;;8.66;37.73
34237;BME280;20501;45.956;13.632;2023-02-07T03:15:06;102664.44;;;7.41;37.95
34237;BME280;20501;45.956;13.632;2023-02-07T03:17:52;102666.41;;;7.78;39.36
34237;BME280;20501;45.956;13.632;2023-02-07T03:20:34;102667.66;;;5.97;40.52
34237;BME280;20501;45.956;13.632;2023-02-07T03:23:02;102671.16;;;7.10;38.69
34237;BME280;20501;45.956;13.632;2023-02-07T03:25:30;102673.59;;;8.73;37.32
34237;BME280;20501;45.956;13.632;2023-02-07T03:27:56;102683.03;;;7.67;38.97
34237;BME280;20501;45.956;13.632;2023-02-07T03:30:23;102676.63;;;8.28;38.21
34237;BME280;20501;45.956;13.632;2023-02-07T03:32:55;102675.25;;;8.75;37.68
34237;BME280;20501;45.956;13.632;2023-02-07T03:35:25;102679.56;;;8.79;36.22
34237;BME280;20501;45.956;13.632;2023-02-07T03:37:57;102684.66;;;9.03;37.03
34237;BME280;20501;45.956;13.632;2023-02-07T03:40:29;102672.44;;;7.64;40.10
34237;BME280;20501;45.956;13.632;2023-02-07T03:45:22;102695.56;;;5.68;44.50
34237;BME280;20501;45.956;13.632;2023-02-07T03:47:48;102680.47;;;6.81;41.26
34237;BME280;20501;45.956;13.632;2023-02-07T03:50:15;102699.75;;;4.44;45.44
34237;BME280;20501;45.956;13.632;2023-02-07T03:52:41;102701.59;;;4.97;41.86
34237;BME280;20501;45.956;13.632;2023-02-07T03:55:06;102701.22;;;6.77;42.11
34237;BME280;20501;45.956;13.632;2023-02-07T03:57:32;102703.69;;;5.41;40.34
34237;BME280;20501;45.956;13.632;2023-02-07T03:59:57;102703.47;;;8.11;39.04
34237;BME280;20501;45.956;13.632;2023-02-07T04:02:23;102695.97;;;8.75;37.94
34237;BME280;20501;45.956;13.632;2023-02-07T04:04:48;102695.66;;;8.04;38.44
34237;BME280;20501;45.956;13.632;2023-02-07T04:07:14;102703.16;;;6.96;35.40
34237;BME280;20501;45.956;13.632;2023-02-07T04:09:39;102706.00;;;8.33;38.42
34237;BME280;20501;45.956;13.632;2023-02-07T04:12:05;102708.16;;;8.82;37.18
34237;BME280;20501;45.956;13.632;2023-02-07T04:14:30;102703.78;;;8.98;37.06
34237;BME280;20501;45.956;13.632;2023-02-07T04:16:56;102707.97;;;9.04;36.46
34237;BME280;20501;45.956;13.632;2023-02-07T04:19:21;102714.28;;;8.86;37.43
34237;BME280;20501;45.956;13.632;2023-02-07T04:21:47;102707.28;;;6.14;38.04
34237;BME280;20501;45.956;13.632;2023-02-07T04:24:12;102706.81;;;8.35;38.10
34237;BME280;20501;45.956;13.632;2023-02-07T04:26:38;102714.59;;;7.63;39.48
34237;BME280;20501;45.956;13.632;2023-02-07T04:29:03;102709.81;;;8.48;37.88
34237;BME280;20501;45.956;13.632;2023-02-07T04:31:29;102708.72;;;8.14;35.09
34237;BME280;20501;45.956;13.632;2023-02-07T04:33:54;102706.84;;;2.06;43.76
34237;BME280;20501;45.956;13.632;2023-02-07T04:36:20;102713.84;;;7.18;41.01
34237;BME280;20501;45.956;13.632;2023-02-07T04:38:47;102723.03;;;6.24;36.60
34237;BME280;20501;45.956;13.632;2023-02-07T04:41:12;102734.50;;;6.51;42.34
34237;BME280;20501;45.956;13.632;2023-02-07T04:43:38;102733.16;;;5.92;44.14
34237;BME280;20501;45.956;13.632;2023-02-07T04:46:04;102727.81;;;6.39;36.80
34237;BME280;20501;45.956;13.632;2023-02-07T04:48:31;102739.34;;;6.87;37.01
34237;BME280;20501;45.956;13.632;2023-02-07T04:50:57;102735.25;;;7.21;40.59
34237;BME280;20501;45.956;13.632;2023-02-07T04:53:22;102743.78;;;8.12;38.95
34237;BME280;20501;45.956;13.632;2023-02-07T04:55:49;102727.47;;;3.48;41.02
34237;BME280;20501;45.956;13.632;2023-02-07T04:58:15;102738.03;;;4.17;41.31
34237;BME280;20501;45.956;13.632;2023-02-07T05:00:41;102752.97;;;6.13;42.77
34237;BME280;20501;45.956;13.632;2023-02-07T05:03:06;102742.06;;;7.90;39.33
34237;BME280;20501;45.956;13.632;2023-02-07T05:05:31;102746.44;;;7.53;39.50
34237;BME280;20501;45.956;13.632;2023-02-07T05:07:57;102748.72;;;5.04;44.26
34237;BME280;20501;45.956;13.632;2023-02-07T05:10:23;102758.22;;;6.16;42.38
34237;BME280;20501;45.956;13.632;2023-02-07T05:12:48;102749.53;;;7.84;39.98
34237;BME280;20501;45.956;13.632;2023-02-07T05:15:13;102751.41;;;7.42;39.78
34237;BME280;20501;45.956;13.632;2023-02-07T05:17:39;102742.03;;;5.94;39.31
34237;BME280;20501;45.956;13.632;2023-02-07T05:20:05;102761.25;;;6.54;41.37
34237;BME280;20501;45.956;13.632;2023-02-07T05:22:31;102757.69;;;7.82;38.63
34237;BME280;20501;45.956;13.632;2023-02-07T05:24:57;102749.91;;;7.76;35.18
34237;BME280;20501;45.956;13.632;2023-02-07T05:27:22;102747.53;;;6.14;40.69
34237;BME280;20501;45.956;13.632;2023-02-07T05:29:48;102758.19;;;5.15;42.71
34237;BME280;20501;45.956;13.632;2023-02-07T05:32:14;102748.63;;;6.56;36.53
34237;BME280;20501;45.956;13.632;2023-02-07T05:34:58;102746.28;;;6.93;40.76
34237;BME280;20501;45.956;13.632;2023-02-07T05:37:24;102753.13;;;7.22;40.41
34237;BME280;20501;45.956;13.632;2023-02-07T05:39:49;102767.72;;;7.99;38.36
34237;BME280;20501;45.956;13.632;2023-02-07T05:42:15;102765.34;;;8.70;36.97
34237;BME280;20501;45.956;13.632;2023-02-07T05:44:40;102766.22;;;8.89;36.50
34237;BME280;20501;45.956;13.632;2023-02-07T05:47:06;102762.94;;;6.57;39.78
34237;BME280;20501;45.956;13.632;2023-02-07T05:49:31;102770.22;;;8.23;38.14
34237;BME280;20501;45.956;13.632;2023-02-07T05:51:56;102758.00;;;7.55;37.33
34237;BME280;20501;45.956;13.632;2023-02-07T05:54:22;102762.84;;;8.08;38.96
34237;BME280;20501;45.956;13.632;2023-02-07T05:56:47;102760.94;;;7.49;39.38
34237;BME280;20501;45.956;13.632;2023-02-07T05:59:13;102758.31;;;8.48;37.73
34237;BME280;20501;45.956;13.632;2023-02-07T06:01:38;102762.31;;;7.17;39.05
34237;BME280;20501;45.956;13.632;2023-02-07T06:04:04;102767.53;;;7.42;39.46
34237;BME280;20501;45.956;13.632;2023-02-07T06:06:29;102765.84;;;7.81;38.65
34237;BME280;20501;45.956;13.632;2023-02-07T06:08:55;102760.44;;;6.96;34.95
34237;BME280;20501;45.956;13.632;2023-02-07T06:11:20;102766.44;;;7.67;39.68
34237;BME280;20501;45.956;13.632;2023-02-07T06:13:45;102771.66;;;4.56;38.15
34237;BME280;20501;45.956;13.632;2023-02-07T06:16:11;102767.53;;;1.46;47.05
34237;BME280;20501;45.956;13.632;2023-02-07T06:18:37;102771.34;;;4.37;45.42
34237;BME280;20501;45.956;13.632;2023-02-07T06:21:02;102767.44;;;7.43;40.15
34237;BME280;20501;45.956;13.632;2023-02-07T06:23:28;102765.69;;;4.16;38.36
34237;BME280;20501;45.956;13.632;2023-02-07T06:25:53;102767.44;;;6.56;40.88
34237;BME280;20501;45.956;13.632;2023-02-07T06:28:19;102768.66;;;7.36;40.35
34237;BME280;20501;45.956;13.632;2023-02-07T06:30:44;102766.34;;;5.38;42.20
34237;BME280;20501;45.956;13.632;2023-02-07T06:33:10;102768.19;;;8.09;39.19
34237;BME280;20501;45.956;13.632;2023-02-07T06:35:35;102773.56;;;5.35;42.38
34237;BME280;20501;45.956;13.632;2023-02-07T06:38:00;102782.97;;;8.19;37.92
34237;BME280;20501;45.956;13.632;2023-02-07T06:40:26;102770.84;;;8.68;37.08
34237;BME280;20501;45.956;13.632;2023-02-07T06:42:51;102777.84;;;8.53;37.32
34237;BME280;20501;45.956;13.632;2023-02-07T06:45:17;102784.31;;;8.49;37.24
34237;BME280;20501;45.956;13.632;2023-02-07T06:47:42;102788.00;;;8.46;38.09
34237;BME280;20501;45.956;13.632;2023-02-07T06:50:07;102784.06;;;3.30;45.03
34237;BME280;20501;45.956;13.632;2023-02-07T06:52:33;102785.66;;;6.94;37.07
34237;BME280;20501;45.956;13.632;2023-02-07T06:54:58;102791.88;;;7.59;38.89
34237;BME280;20501;45.956;13.632;2023-02-07T06:57:24;102794.03;;;7.29;39.95
34237;BME280;20501;45.956;13.632;2023-02-07T06:59:49;102798.84;;;8.05;38.60
34237;BME280;20501;45.956;13.632;2023-02-07T07:02:14;102790.44;;;8.52;37.60
34237;BME280;20501;45.956;13.632;2023-02-07T07:04:41;102798.63;;;8.88;36.67
34237;BME280;20501;45.956;13.632;2023-02-07T07:07:06;102802.72;;;8.77;36.48
34237;BME280;20501;45.956;13.632;2023-02-07T07:09:32;102800.97;;;8.95;36.45
34237;BME280;20501;45.956;13.632;2023-02-07T07:11:57;102797.59;;;7.72;37.46
34237;BME280;20501;45.956;13.632;2023-02-07T07:14:23;102803.44;;;4.95;40.82
34237;BME280;20501;45.956;13.632;2023-02-07T07:16:48;102800.50;;;5.84;37.76
34237;BME280;20501;45.956;13.632;2023-02-07T07:19:14;102793.94;;;5.14;37.74
34237;BME280;20501;45.956;13.632;2023-02-07T07:21:39;102791.53;;;7.47;39.60
34237;BME280;20501;45.956;13.632;2023-02-07T07:24:05;102794.16;;;7.48;38.02
34237;BME280;20501;45.956;13.632;2023-02-07T07:26:30;102780.78;;;7.88;38.90
34237;BME280;20501;45.956;13.632;2023-02-07T07:28:56;102792.25;;;8.12;35.85
34237;BME280;20501;45.956;13.632;2023-02-07T07:31:24;102792.47;;;8.66;36.54
34237;BME280;20501;45.956;13.632;2023-02-07T07:33:52;102798.00;;;9.19;36.17
34237;BME280;20501;45.956;13.632;2023-02-07T07:36:17;102798.06;;;4.07;40.58
34237;BME280;20501;45.956;13.632;2023-02-07T07:38:43;102789.53;;;3.93;44.11
34237;BME280;20501;45.956;13.632;2023-02-07T07:41:08;102808.41;;;6.14;42.83
34237;BME280;20501;45.956;13.632;2023-02-07T07:43:34;102805.34;;;5.99;37.92
34237;BME280;20501;45.956;13.632;2023-02-07T07:46:00;102797.81;;;3.83;43.29
34237;BME280;20501;45.956;13.632;2023-02-07T07:48:26;102799.81;;;3.40;40.60
34237;BME280;20501;45.956;13.632;2023-02-07T07:50:52;102807.50;;;4.80;44.17
34237;BME280;20501;45.956;13.632;2023-02-07T07:53:18;102797.03;;;7.85;39.58
34237;BME280;20501;45.956;13.632;2023-02-07T07:55:52;102794.84;;;8.92;36.55
34237;BME280;20501;45.956;13.632;2023-02-07T07:58:19;102787.81;;;8.51;34.68
34237;BME280;20501;45.956;13.632;2023-02-07T08:00:45;102789.88;;;8.44;34.74
34237;BME280;20501;45.956;13.632;2023-02-07T08:03:12;102785.53;;;6.03;39.84
34237;BME280;20501;45.956;13.632;2023-02-07T08:05:38;102782.09;;;8.76;37.27
34237;BME280;20501;45.956;13.632;2023-02-07T08:08:03;102777.69;;;7.77;34.78
34237;BME280;20501;45.956;13.632;2023-02-07T08:10:29;102775.75;;;8.96;36.68
34237;BME280;20501;45.956;13.632;2023-02-07T08:12:54;102776.44;;;9.37;35.04
34237;BME280;20501;45.956;13.632;2023-02-07T08:15:20;102775.78;;;9.67;35.54
34237;BME280;20501;45.956;13.632;2023-02-07T08:17:45;102770.97;;;9.38;34.81
34237;BME280;20501;45.956;13.632;2023-02-07T08:20:11;102767.34;;;9.39;35.59
34237;BME280;20501;45.956;13.632;2023-02-07T08:22:37;102762.47;;;8.74;36.50
34237;BME280;20501;45.956;13.632;2023-02-07T08:25:03;102762.06;;;8.82;35.89
34237;BME280;20501;45.956;13.632;2023-02-07T08:27:29;102764.88;;;7.40;32.75
34237;BME280;20501;45.956;13.632;2023-02-07T08:29:54;102778.31;;;9.00;36.63
34237;BME280;20501;45.956;13.632;2023-02-07T08:32:20;102780.34;;;9.66;35.85
34237;BME280;20501;45.956;13.632;2023-02-07T08:34:45;102773.03;;;9.33;35.98
34237;BME280;20501;45.956;13.632;2023-02-07T08:37:10;102763.41;;;9.45;34.77
34237;BME280;20501;45.956;13.632;2023-02-07T08:39:36;102754.53;;;7.52;38.58
34237;BME280;20501;45.956;13.632;2023-02-07T08:42:02;102759.06;;;9.42;35.97
34237;BME280;20501;45.956;13.632;2023-02-07T08:44:29;102749.47;;;9.37;35.89
34237;BME280;20501;45.956;13.632;2023-02-07T08:46:55;102758.75;;;8.77;36.11
34237;BME280;20501;45.956;13.632;2023-02-07T08:49:20;102753.44;;;7.15;33.97
34237;BME280;20501;45.956;13.632;2023-02-07T08:51:46;102756.28;;;7.32;35.10
34237;BME280;20501;45.956;13.632;2023-02-07T08:54:11;102755.56;;;7.70;32.85
34237;BME280;20501;45.956;13.632;2023-02-07T08:56:37;102742.47;;;6.30;36.27
34237;BME280;20501;45.956;13.632;2023-02-07T08:59:02;102742.34;;;6.79;34.43
34237;BME280;20501;45.956;13.632;2023-02-07T09:01:27;102753.19;;;8.42;37.12
34237;BME280;20501;45.956;13.632;2023-02-07T09:03:54;102746.19;;;7.17;32.75
34237;BME280;20501;45.956;13.632;2023-02-07T09:06:22;102743.00;;;7.50;36.06
34237;BME280;20501;45.956;13.632;2023-02-07T09:08:47;102740.56;;;8.04;32.47
34237;BME280;20501;45.956;13.632;2023-02-07T09:11:13;102733.66;;;7.98;37.97
34237;BME280;20501;45.956;13.632;2023-02-07T09:13:40;102723.97;;;7.54;31.14
34237;BME280;20501;45.956;13.632;2023-02-07T09:16:05;102725.38;;;8.22;33.00
34237;BME280;20501;45.956;13.632;2023-02-07T09:18:31;102729.66;;;6.15;32.07
34237;BME280;20501;45.956;13.632;2023-02-07T09:20:56;102726.06;;;8.65;36.27
34237;BME280;20501;45.956;13.632;2023-02-07T09:23:22;102725.47;;;8.20;31.77
34237;BME280;20501;45.956;13.632;2023-02-07T09:25:50;102723.91;;;9.09;33.82
34237;BME280;20501;45.956;13.632;2023-02-07T09:28:17;102726.44;;;8.94;33.35
34237;BME280;20501;45.956;13.632;2023-02-07T09:30:43;102725.78;;;8.52;36.25
34237;BME280;20501;45.956;13.632;2023-02-07T09:33:10;102737.88;;;9.52;34.82
34237;BME280;20501;45.956;13.632;2023-02-07T09:35:38;102728.13;;;7.41;31.06
34237;BME280;20501;45.956;13.632;2023-02-07T09:38:05;102729.25;;;6.48;34.66
34237;BME280;20501;45.956;13.632;2023-02-07T09:40:32;102723.72;;;8.77;31.92
34237;BME280;20501;45.956;13.632;2023-02-07T09:46:04;102720.25;;;7.57;31.85
34237;BME280;20501;45.956;13.632;2023-02-07T09:51:04;102709.44;;;7.98;36.15
34237;BME280;20501;45.956;13.632;2023-02-07T09:53:40;102712.59;;;6.16;33.06
34237;BME280;20501;45.956;13.632;2023-02-07T09:56:07;102721.84;;;5.06;36.18
34237;BME280;20501;45.956;13.632;2023-02-07T09:58:43;102720.94;;;5.34;34.67
34237;BME280;20501;45.956;13.632;2023-02-07T10:01:14;102713.34;;;5.96;33.63
34237;BME280;20501;45.956;13.632;2023-02-07T10:06:49;102704.47;;;8.85;35.51
34237;BME280;20501;45.956;13.632;2023-02-07T10:09:32;102699.75;;;5.51;34.35
34237;BME280;20501;45.956;13.632;2023-02-07T10:14:54;102685.41;;;6.70;34.20
34237;BME280;20501;45.956;13.632;2023-02-07T10:17:48;102688.63;;;5.37;33.35
34237;BME280;20501;45.956;13.632;2023-02-07T10:30:48;102681.06;;;6.45;32.05
34237;BME280;20501;45.956;13.632;2023-02-07T10:33:16;102678.56;;;6.62;32.61
34237;BME280;20501;45.956;13.632;2023-02-07T10:35:43;102681.16;;;8.83;35.75
34237;BME280;20501;45.956;13.632;2023-02-07T10:40:47;102680.66;;;8.75;35.20
34237;BME280;20501;45.956;13.632;2023-02-07T10:43:30;102679.47;;;8.25;29.65
34237;BME280;20501;45.956;13.632;2023-02-07T10:46:07;102679.78;;;7.19;29.97
34237;BME280;20501;45.956;13.632;2023-02-07T10:48:35;102683.81;;;6.65;31.88
34237;BME280;20501;45.956;13.632;2023-02-07T10:51:28;102671.66;;;8.38;31.16
34237;BME280;20501;45.956;13.632;2023-02-07T10:56:34;102668.91;;;7.82;31.72
34237;BME280;20501;45.956;13.632;2023-02-07T10:59:02;102664.06;;;9.87;33.66
34237;BME280;20501;45.956;13.632;2023-02-07T11:01:30;102660.38;;;9.38;29.07
34237;BME280;20501;45.956;13.632;2023-02-07T11:03:56;102643.91;;;6.56;29.51
34237;BME280;20501;45.956;13.632;2023-02-07T11:06:28;102645.03;;;6.93;32.90
34237;BME280;20501;45.956;13.632;2023-02-07T11:11:37;102644.59;;;9.98;32.89
34237;BME280;20501;45.956;13.632;2023-02-07T11:14:05;102643.44;;;10.18;32.22
34237;BME280;20501;45.956;13.632;2023-02-07T11:16:31;102629.44;;;8.75;26.53
34237;BME280;20501;45.956;13.632;2023-02-07T11:19:04;102623.34;;;7.39;28.51
34237;BME280;20501;45.956;13.632;2023-02-07T11:24:17;102628.53;;;8.20;31.69
34237;BME280;20501;45.956;13.632;2023-02-07T11:26:59;102631.78;;;9.01;29.01
34237;BME280;20501;45.956;13.632;2023-02-07T11:29:31;102623.81;;;6.87;28.06
34237;BME280;20501;45.956;13.632;2023-02-07T11:31:59;102621.81;;;8.66;32.41
34237;BME280;20501;45.956;13.632;2023-02-07T11:34:27;102621.50;;;8.55;26.41
34237;BME280;20501;45.956;13.632;2023-02-07T11:36:55;102623.75;;;8.45;25.58
34237;BME280;20501;45.956;13.632;2023-02-07T11:39:32;102616.28;;;8.51;27.08
34237;BME280;20501;45.956;13.632;2023-02-07T11:41:59;102619.53;;;9.28;31.20
34237;BME280;20501;45.956;13.632;2023-02-07T11:44:27;102611.59;;;7.80;26.18
34237;BME280;20501;45.956;13.632;2023-02-07T11:46:54;102609.53;;;6.64;26.77
34237;BME280;20501;45.956;13.632;2023-02-07T11:49:26;102607.69;;;6.87;31.43
34237;BME280;20501;45.956;13.632;2023-02-07T11:51:55;102606.69;;;8.81;31.64
34237;BME280;20501;45.956;13.632;2023-02-07T11:54:21;102605.56;;;8.50;32.91
34237;BME280;20501;45.956;13.632;2023-02-07T11:56:49;102602.34;;;8.78;26.87
34237;BME280;20501;45.956;13.632;2023-02-07T11:59:21;102609.75;;;8.00;26.11
34237;BME280;20501;45.956;13.632;2023-02-07T12:01:52;102603.09;;;7.70;31.55
34237;BME280;20501;45.956;13.632;2023-02-07T12:04:23;102597.63;;;7.72;27.80
34237;BME280;20501;45.956;13.632;2023-02-07T12:07:03;102588.56;;;9.69;29.08
34237;BME280;20501;45.956;13.632;2023-02-07T12:09:49;102586.31;;;9.28;28.86
34237;BME280;20501;45.956;13.632;2023-02-07T12:14:53;102586.19;;;9.63;25.72
34237;BME280;20501;45.956;13.632;2023-02-07T12:17:28;102576.97;;;10.15;24.96
34237;BME280;20501;45.956;13.632;2023-02-07T12:19:58;102577.25;;;10.73;29.41
34237;BME280;20501;45.956;13.632;2023-02-07T12:22:38;102572.63;;;10.45;24.13
34237;BME280;20501;45.956;13.632;2023-02-07T12:25:20;102570.09;;;8.77;25.05
34237;BME280;20501;45.956;13.632;2023-02-07T12:27:49;102560.19;;;8.77;25.56
34237;BME280;20501;45.956;13.632;2023-02-07T12:30:32;102558.34;;;10.11;31.44
34237;BME280;20501;45.956;13.632;2023-02-07T12:33:09;102555.13;;;9.88;28.94
34237;BME280;20501;45.956;13.632;2023-02-07T12:41:43;102547.00;;;8.54;31.68
34237;BME280;20501;45.956;13.632;2023-02-07T12:44:23;102545.19;;;8.36;25.45
34237;BME280;20501;45.956;13.632;2023-02-07T12:47:06;102540.00;;;9.36;28.87
34237;BME280;20501;45.956;13.632;2023-02-07T12:55:11;102543.31;;;8.19;26.15
34237;BME280;20501;45.956;13.632;2023-02-07T13:00:32;102518.00;;;8.94;30.32
34237;BME280;20501;45.956;13.632;2023-02-07T13:05:59;102514.56;;;7.83;25.07
34237;BME280;20501;45.956;13.632;2023-02-07T13:14:22;102497.94;;;7.75;27.95
34237;BME280;20501;45.956;13.632;2023-02-07T13:21:57;102494.94;;;7.81;25.48
34237;BME280;20501;45.956;13.632;2023-02-07T13:24:26;102492.63;;;8.45;30.66
34237;BME280;20501;45.956;13.632;2023-02-07T13:27:05;102488.69;;;8.17;25.52
34237;BME280;20501;45.956;13.632;2023-02-07T13:29:34;102483.91;;;8.05;25.10
34237;BME280;20501;45.956;13.632;2023-02-07T13:32:04;102478.88;;;7.80;24.34
34237;BME280;20501;45.956;13.632;2023-02-07T13:34:43;102486.59;;;7.49;24.64
34237;BME280;20501;45.956;13.632;2023-02-07T13:37:13;102480.22;;;7.88;28.96
34237;BME280;20501;45.956;13.632;2023-02-07T13:40:16;102489.38;;;7.28;24.47
34237;BME280;20501;45.956;13.632;2023-02-07T13:45:26;102481.47;;;6.86;25.35
34237;BME280;20501;45.956;13.632;2023-02-07T13:55:44;102474.31;;;7.63;24.47
34237;BME280;20501;45.956;13.632;2023-02-07T14:01:29;102468.28;;;7.57;25.72
34237;BME280;20501;45.956;13.632;2023-02-07T14:04:10;102469.59;;;7.10;25.28
34237;BME280;20501;45.956;13.632;2023-02-07T14:06:38;102470.91;;;7.40;26.70
34237;BME280;20501;45.956;13.632;2023-02-07T14:09:21;102472.34;;;7.09;25.57
34237;BME280;20501;45.956;13.632;2023-02-07T14:12:04;102461.16;;;6.99;26.03
34237;BME280;20501;45.956;13.632;2023-02-07T14:14:33;102458.16;;;6.86;26.13
34237;BME280;20501;45.956;13.632;2023-02-07T14:17:02;102462.63;;;7.06;28.09
34237;BME280;20501;45.956;13.632;2023-02-07T14:22:27;102464.50;;;6.44;26.27
34237;BME280;20501;45.956;13.632;2023-02-07T14:39:22;102461.94;;;7.78;30.26
34237;BME280;20501;45.956;13.632;2023-02-07T14:41:30;102454.47;;;7.46;26.43
34237;BME280;20501;45.956;13.632;2023-02-07T14:43:58;102447.88;;;7.15;25.11
34237;BME280;20501;45.956;13.632;2023-02-07T14:46:35;102456.22;;;6.69;25.19
34237;BME280;20501;45.956;13.632;2023-02-07T14:52:04;102468.47;;;6.95;25.97
34237;BME280;20501;45.956;13.632;2023-02-07T14:55:00;102466.56;;;6.16;25.04
34237;BME280;20501;45.956;13.632;2023-02-07T15:07:41;102483.94;;;6.28;25.64
34237;BME280;20501;45.956;13.632;2023-02-07T15:13:05;102482.13;;;6.08;26.03
34237;BME280;20501;45.956;13.632;2023-02-07T15:15:50;102484.03;;;6.68;27.03
34237;BME280;20501;45.956;13.632;2023-02-07T15:18:19;102479.09;;;5.94;25.85
34237;BME280;20501;45.956;13.632;2023-02-07T15:20:54;102486.47;;;5.66;26.14
34237;BME280;20501;45.956;13.632;2023-02-07T15:23:22;102484.25;;;5.54;26.18